sensor_id;sensor_type;location;lat;lon;timestamp;pressure;altitude;pressure_sealevel;temperature;humidity
81913;BME280;71377;50.698;7.164;2024-03-17T00:02:23;101723.78;;;8.14;93.77
81913;BME280;71377;50.698;7.164;2024-03-17T00:04:49;101719.38;;;8.21;92.90
81913;BME280;71377;50.698;7.164;2024-03-17T00:07:14;101710.78;;;8.08;94.46
81913;BME280;71377;50.698;7.164;2024-03-17T00:09:41;101708.22;;;7.96;95.45
81913;BME280;71377;50.698;7.164;2024-03-17T00:12:07;101702.97;;;8.01;94.82
81913;BME280;71377;50.698;7.164;2024-03-17T00:14:34;101709.88;;;8.08;95.00
81913;BME280;71377;50.698;7.164;2024-03-17T00:17:02;101710.75;;;8.11;95.18
81913;BME280;71377;50.698;7.164;2024-03-17T00:19:28;101712.44;;;8.14;93.57
81913;BME280;71377;50.698;7.164;2024-03-17T00:21:54;101707.13;;;8.25;93.16
81913;BME280;71377;50.698;7.164;2024-03-17T00:24:20;101713.41;;;8.04;94.86
81913;BME280;71377;50.698;7.164;2024-03-17T00:26:46;101711.88;;;7.77;96.24
81913;BME280;71377;50.698;7.164;2024-03-17T00:29:12;101704.84;;;7.83;96.14
81913;BME280;71377;50.698;7.164;2024-03-17T00:31:38;101703.03;;;7.93;94.92
81913;BME280;71377;50.698;7.164;2024-03-17T00:34:03;101697.88;;;7.84;94.64
81913;BME280;71377;50.698;7.164;2024-03-17T00:36:31;101699.59;;;7.85;94.46
81913;BME280;71377;50.698;7.164;2024-03-17T00:38:57;101701.53;;;7.58;96.60
81913;BME280;71377;50.698;7.164;2024-03-17T00:41:23;101698.94;;;7.52;97.22
81913;BME280;71377;50.698;7.164;2024-03-17T00:43:49;101695.44;;;7.53;96.56
81913;BME280;71377;50.698;7.164;2024-03-17T00:46:15;101701.56;;;7.46;97.68
81913;BME280;71377;50.698;7.164;2024-03-17T00:48:41;101690.22;;;7.52;96.69
81913;BME280;71377;50.698;7.164;2024-03-17T00:51:07;101683.28;;;7.49;96.68
81913;BME280;71377;50.698;7.164;2024-03-17T00:53:32;101689.44;;;7.41;97.68
81913;BME280;71377;50.698;7.164;2024-03-17T00:55:58;101678.97;;;7.42;97.61
81913;BME280;71377;50.698;7.164;2024-03-17T00:58:23;101682.41;;;7.50;96.95
81913;BME280;71377;50.698;7.164;2024-03-17T01:00:49;101684.97;;;7.53;97.09
81913;BME280;71377;50.698;7.164;2024-03-17T01:03:16;101691.19;;;7.40;97.10
81913;BME280;71377;50.698;7.164;2024-03-17T01:05:41;101683.38;;;7.32;97.46
81913;BME280;71377;50.698;7.164;2024-03-17T01:08:12;101679.00;;;7.33;97.15
81913;BME280;71377;50.698;7.164;2024-03-17T01:10:39;101678.97;;;7.36;96.96
81913;BME280;71377;50.698;7.164;2024-03-17T01:13:08;101681.59;;;7.36;97.26
81913;BME280;71377;50.698;7.164;2024-03-17T01:15:35;101669.47;;;7.20;97.32
81913;BME280;71377;50.698;7.164;2024-03-17T01:18:03;101663.47;;;7.05;98.76
81913;BME280;71377;50.698;7.164;2024-03-17T01:20:32;101665.19;;;7.09;98.40
81913;BME280;71377;50.698;7.164;2024-03-17T01:22:59;101668.69;;;7.05;98.46
81913;BME280;71377;50.698;7.164;2024-03-17T01:25:25;101675.66;;;7.06;98.68
81913;BME280;71377;50.698;7.164;2024-03-17T01:27:51;101666.09;;;7.04;98.75
81913;BME280;71377;50.698;7.164;2024-03-17T01:30:17;101658.25;;;7.05;98.06
81913;BME280;71377;50.698;7.164;2024-03-17T01:32:45;101660.03;;;6.97;98.41
81913;BME280;71377;50.698;7.164;2024-03-17T01:35:11;101656.53;;;7.00;98.64
81913;BME280;71377;50.698;7.164;2024-03-17T01:37:37;101652.25;;;6.87;99.11
81913;BME280;71377;50.698;7.164;2024-03-17T01:40:03;101648.72;;;6.89;97.98
81913;BME280;71377;50.698;7.164;2024-03-17T01:42:35;101644.38;;;6.85;98.61
81913;BME280;71377;50.698;7.164;2024-03-17T01:45:00;101641.75;;;6.90;98.05
81913;BME280;71377;50.698;7.164;2024-03-17T01:47:26;101634.81;;;6.86;97.39
81913;BME280;71377;50.698;7.164;2024-03-17T01:49:53;101639.25;;;6.70;98.64
81913;BME280;71377;50.698;7.164;2024-03-17T01:52:20;101636.59;;;6.68;98.67
81913;BME280;71377;50.698;7.164;2024-03-17T01:54:46;101630.53;;;6.66;98.80
81913;BME280;71377;50.698;7.164;2024-03-17T01:57:12;101625.31;;;6.59;98.74
81913;BME280;71377;50.698;7.164;2024-03-17T01:59:39;101620.16;;;6.53;99.44
81913;BME280;71377;50.698;7.164;2024-03-17T02:02:04;101624.47;;;6.63;98.58
81913;BME280;71377;50.698;7.164;2024-03-17T02:04:31;101623.50;;;6.82;97.37
81913;BME280;71377;50.698;7.164;2024-03-17T02:06:56;101627.03;;;6.72;97.47
81913;BME280;71377;50.698;7.164;2024-03-17T02:09:22;101631.41;;;6.67;97.55
81913;BME280;71377;50.698;7.164;2024-03-17T02:11:48;101627.97;;;6.49;98.35
81913;BME280;71377;50.698;7.164;2024-03-17T02:14:13;101623.59;;;6.61;96.98
81913;BME280;71377;50.698;7.164;2024-03-17T02:16:40;101628.81;;;6.58;98.41
81913;BME280;71377;50.698;7.164;2024-03-17T02:19:06;101630.59;;;6.46;99.13
81913;BME280;71377;50.698;7.164;2024-03-17T02:21:31;101628.00;;;6.45;99.21
81913;BME280;71377;50.698;7.164;2024-03-17T02:23:57;101627.13;;;6.44;98.40
81913;BME280;71377;50.698;7.164;2024-03-17T02:26:25;101623.69;;;6.27;99.11
81913;BME280;71377;50.698;7.164;2024-03-17T02:28:51;101628.03;;;6.34;99.12
81913;BME280;71377;50.698;7.164;2024-03-17T02:31:17;101626.28;;;6.24;99.53
81913;BME280;71377;50.698;7.164;2024-03-17T02:33:43;101628.91;;;6.30;98.67
81913;BME280;71377;50.698;7.164;2024-03-17T02:36:09;101628.00;;;6.46;99.38
81913;BME280;71377;50.698;7.164;2024-03-17T02:38:38;101628.88;;;6.38;98.25
81913;BME280;71377;50.698;7.164;2024-03-17T02:41:22;101628.94;;;6.18;98.58
81913;BME280;71377;50.698;7.164;2024-03-17T02:43:48;101629.78;;;6.08;99.68
81913;BME280;71377;50.698;7.164;2024-03-17T02:46:15;101630.66;;;6.28;99.13
81913;BME280;71377;50.698;7.164;2024-03-17T02:48:42;101633.25;;;6.14;99.00
81913;BME280;71377;50.698;7.164;2024-03-17T02:51:16;101627.16;;;6.15;98.71
81913;BME280;71377;50.698;7.164;2024-03-17T02:53:43;101618.47;;;6.16;98.22
81913;BME280;71377;50.698;7.164;2024-03-17T02:56:10;101621.97;;;5.99;98.88
81913;BME280;71377;50.698;7.164;2024-03-17T02:58:37;101625.44;;;5.98;100.00
81913;BME280;71377;50.698;7.164;2024-03-17T03:01:07;101622.84;;;5.94;99.56
81913;BME280;71377;50.698;7.164;2024-03-17T03:03:33;101626.31;;;5.84;100.00
81913;BME280;71377;50.698;7.164;2024-03-17T03:05:59;101619.34;;;5.80;100.00
81913;BME280;71377;50.698;7.164;2024-03-17T03:08:30;101621.94;;;5.73;100.00
81913;BME280;71377;50.698;7.164;2024-03-17T03:10:56;101619.34;;;5.77;100.00
81913;BME280;71377;50.698;7.164;2024-03-17T03:13:21;101621.94;;;5.82;100.00
81913;BME280;71377;50.698;7.164;2024-03-17T03:15:47;101619.34;;;5.73;100.00
81913;BME280;71377;50.698;7.164;2024-03-17T03:18:14;101617.59;;;5.72;100.00
81913;BME280;71377;50.698;7.164;2024-03-17T03:20:39;101615.88;;;5.71;100.00
81913;BME280;71377;50.698;7.164;2024-03-17T03:23:05;101617.63;;;5.76;100.00
81913;BME280;71377;50.698;7.164;2024-03-17T03:25:30;101609.78;;;5.58;100.00
81913;BME280;71377;50.698;7.164;2024-03-17T03:27:56;101616.72;;;5.60;100.00
81913;BME280;71377;50.698;7.164;2024-03-17T03:30:23;101620.19;;;5.64;100.00
81913;BME280;71377;50.698;7.164;2024-03-17T03:32:49;101628.88;;;5.54;100.00
81913;BME280;71377;50.698;7.164;2024-03-17T03:35:15;101621.94;;;5.50;100.00
81913;BME280;71377;50.698;7.164;2024-03-17T03:37:41;101625.41;;;5.49;100.00
81913;BME280;71377;50.698;7.164;2024-03-17T03:40:07;101620.19;;;5.41;100.00
81913;BME280;71377;50.698;7.164;2024-03-17T03:42:43;101626.28;;;5.42;100.00
81913;BME280;71377;50.698;7.164;2024-03-17T03:45:09;101620.19;;;5.39;100.00
81913;BME280;71377;50.698;7.164;2024-03-17T03:47:41;101624.53;;;5.39;100.00
81913;BME280;71377;50.698;7.164;2024-03-17T03:50:10;101616.69;;;5.34;100.00
81913;BME280;71377;50.698;7.164;2024-03-17T03:52:37;101615.84;;;5.40;100.00
81913;BME280;71377;50.698;7.164;2024-03-17T03:55:06;101614.97;;;5.38;100.00
81913;BME280;71377;50.698;7.164;2024-03-17T03:57:38;101611.47;;;5.37;100.00
81913;BME280;71377;50.698;7.164;2024-03-17T04:00:04;101607.13;;;5.38;100.00
81913;BME280;71377;50.698;7.164;2024-03-17T04:02:38;101608.00;;;5.37;100.00
81913;BME280;71377;50.698;7.164;2024-03-17T04:05:04;101603.66;;;5.34;100.00
81913;BME280;71377;50.698;7.164;2024-03-17T04:07:29;101601.94;;;5.35;100.00
81913;BME280;71377;50.698;7.164;2024-03-17T04:09:55;101604.56;;;5.30;100.00
81913;BME280;71377;50.698;7.164;2024-03-17T04:12:20;101610.59;;;5.28;100.00
81913;BME280;71377;50.698;7.164;2024-03-17T04:14:46;101607.16;;;5.33;100.00
81913;BME280;71377;50.698;7.164;2024-03-17T04:17:13;101602.81;;;5.31;100.00
81913;BME280;71377;50.698;7.164;2024-03-17T04:19:38;101601.03;;;5.21;100.00
81913;BME280;71377;50.698;7.164;2024-03-17T04:22:04;101598.47;;;5.31;100.00
81913;BME280;71377;50.698;7.164;2024-03-17T04:24:29;101601.91;;;5.18;100.00
81913;BME280;71377;50.698;7.164;2024-03-17T04:26:55;101598.44;;;5.21;100.00
81913;BME280;71377;50.698;7.164;2024-03-17T04:29:20;101598.44;;;5.21;100.00
81913;BME280;71377;50.698;7.164;2024-03-17T04:31:46;101601.00;;;5.08;100.00
81913;BME280;71377;50.698;7.164;2024-03-17T04:34:14;101600.16;;;5.08;100.00
81913;BME280;71377;50.698;7.164;2024-03-17T04:36:40;101603.66;;;5.25;100.00
81913;BME280;71377;50.698;7.164;2024-03-17T04:39:05;101595.84;;;5.25;100.00
81913;BME280;71377;50.698;7.164;2024-03-17T04:41:33;101596.72;;;5.30;99.83
81913;BME280;71377;50.698;7.164;2024-03-17T04:43:59;101592.34;;;5.17;100.00
81913;BME280;71377;50.698;7.164;2024-03-17T04:46:24;101583.66;;;5.10;100.00
81913;BME280;71377;50.698;7.164;2024-03-17T04:48:51;101577.59;;;5.13;100.00
81913;BME280;71377;50.698;7.164;2024-03-17T04:51:17;101582.81;;;5.13;100.00
81913;BME280;71377;50.698;7.164;2024-03-17T04:53:43;101577.56;;;5.11;100.00
81913;BME280;71377;50.698;7.164;2024-03-17T04:56:08;101577.59;;;5.16;100.00
81913;BME280;71377;50.698;7.164;2024-03-17T04:58:34;101576.72;;;5.05;100.00
81913;BME280;71377;50.698;7.164;2024-03-17T05:01:09;101570.69;;;5.21;100.00
81913;BME280;71377;50.698;7.164;2024-03-17T05:03:35;101567.16;;;5.08;100.00
81913;BME280;71377;50.698;7.164;2024-03-17T05:06:02;101562.84;;;5.35;99.19
81913;BME280;71377;50.698;7.164;2024-03-17T05:08:29;101558.50;;;5.25;99.61
81913;BME280;71377;50.698;7.164;2024-03-17T05:10:58;101561.13;;;5.32;98.76
81913;BME280;71377;50.698;7.164;2024-03-17T05:13:27;101561.09;;;5.26;99.62
81913;BME280;71377;50.698;7.164;2024-03-17T05:15:54;101560.25;;;5.24;100.00
81913;BME280;71377;50.698;7.164;2024-03-17T05:18:19;101560.25;;;5.23;99.95
81913;BME280;71377;50.698;7.164;2024-03-17T05:20:46;101568.91;;;5.17;99.61
81913;BME280;71377;50.698;7.164;2024-03-17T05:23:12;101565.41;;;5.09;100.00
81913;BME280;71377;50.698;7.164;2024-03-17T05:25:39;101561.13;;;5.22;99.51
81913;BME280;71377;50.698;7.164;2024-03-17T05:28:04;101564.56;;;5.18;99.93
81913;BME280;71377;50.698;7.164;2024-03-17T05:30:30;101563.72;;;5.13;100.00
81913;BME280;71377;50.698;7.164;2024-03-17T05:32:56;101550.66;;;4.96;100.00
81913;BME280;71377;50.698;7.164;2024-03-17T05:35:21;101558.47;;;5.08;99.96
81913;BME280;71377;50.698;7.164;2024-03-17T05:37:48;101557.59;;;4.97;100.00
81913;BME280;71377;50.698;7.164;2024-03-17T05:40:14;101565.44;;;5.06;99.83
81913;BME280;71377;50.698;7.164;2024-03-17T05:42:43;101565.44;;;5.06;100.00
81913;BME280;71377;50.698;7.164;2024-03-17T05:45:09;101564.56;;;5.04;100.00
81913;BME280;71377;50.698;7.164;2024-03-17T05:47:38;101567.13;;;4.95;100.00
81913;BME280;71377;50.698;7.164;2024-03-17T05:50:04;101578.44;;;5.00;100.00
81913;BME280;71377;50.698;7.164;2024-03-17T05:52:30;101586.25;;;4.97;100.00
81913;BME280;71377;50.698;7.164;2024-03-17T05:54:55;101573.25;;;5.09;99.68
81913;BME280;71377;50.698;7.164;2024-03-17T05:57:22;101570.63;;;5.10;99.70
81913;BME280;71377;50.698;7.164;2024-03-17T05:59:48;101573.25;;;5.06;99.99
81913;BME280;71377;50.698;7.164;2024-03-17T06:02:13;101574.09;;;5.06;100.00
81913;BME280;71377;50.698;7.164;2024-03-17T06:04:40;101573.25;;;5.09;100.00
81913;BME280;71377;50.698;7.164;2024-03-17T06:07:06;101571.53;;;5.17;99.41
81913;BME280;71377;50.698;7.164;2024-03-17T06:09:31;101573.25;;;5.09;99.72
81913;BME280;71377;50.698;7.164;2024-03-17T06:11:57;101571.50;;;5.08;99.96
81913;BME280;71377;50.698;7.164;2024-03-17T06:14:22;101569.75;;;4.99;100.00
81913;BME280;71377;50.698;7.164;2024-03-17T06:16:48;101567.16;;;5.07;100.00
81913;BME280;71377;50.698;7.164;2024-03-17T06:19:14;101560.28;;;5.39;99.89
81913;BME280;71377;50.698;7.164;2024-03-17T06:21:40;101562.00;;;5.33;99.09
81913;BME280;71377;50.698;7.164;2024-03-17T06:24:06;101553.31;;;5.35;99.28
81913;BME280;71377;50.698;7.164;2024-03-17T06:26:32;101555.91;;;5.42;98.53
81913;BME280;71377;50.698;7.164;2024-03-17T06:29:02;101545.50;;;5.45;98.31
81913;BME280;71377;50.698;7.164;2024-03-17T06:31:28;101542.03;;;5.67;97.52
81913;BME280;71377;50.698;7.164;2024-03-17T06:33:53;101549.84;;;5.53;97.35
81913;BME280;71377;50.698;7.164;2024-03-17T06:36:19;101546.34;;;5.56;97.67
81913;BME280;71377;50.698;7.164;2024-03-17T06:38:44;101543.75;;;5.62;97.80
81913;BME280;71377;50.698;7.164;2024-03-17T06:41:10;101540.28;;;5.52;97.63
81913;BME280;71377;50.698;7.164;2024-03-17T06:43:35;101544.63;;;5.70;97.23
81913;BME280;71377;50.698;7.164;2024-03-17T06:46:01;101541.97;;;5.88;95.98
81913;BME280;71377;50.698;7.164;2024-03-17T06:48:28;101539.41;;;5.78;96.82
81913;BME280;71377;50.698;7.164;2024-03-17T06:50:54;101539.38;;;5.88;96.68
81913;BME280;71377;50.698;7.164;2024-03-17T06:53:23;101534.19;;;5.96;96.44
81913;BME280;71377;50.698;7.164;2024-03-17T06:55:59;101539.38;;;6.10;95.60
81913;BME280;71377;50.698;7.164;2024-03-17T06:58:26;101535.88;;;6.06;95.08
81913;BME280;71377;50.698;7.164;2024-03-17T07:01:00;101528.91;;;6.20;95.56
81913;BME280;71377;50.698;7.164;2024-03-17T07:03:28;101541.91;;;6.33;95.42
81913;BME280;71377;50.698;7.164;2024-03-17T07:05:59;101540.09;;;6.51;94.21
81913;BME280;71377;50.698;7.164;2024-03-17T07:08:27;101539.28;;;6.39;94.48
81913;BME280;71377;50.698;7.164;2024-03-17T07:11:00;101536.63;;;6.49;95.06
81913;BME280;71377;50.698;7.164;2024-03-17T07:13:36;101536.56;;;6.65;93.88
81913;BME280;71377;50.698;7.164;2024-03-17T07:16:03;101526.09;;;6.68;93.39
81913;BME280;71377;50.698;7.164;2024-03-17T07:18:31;101523.38;;;6.88;92.83
81913;BME280;71377;50.698;7.164;2024-03-17T07:20:58;101530.16;;;7.15;91.04
81913;BME280;71377;50.698;7.164;2024-03-17T07:23:24;101532.81;;;7.13;90.89
81913;BME280;71377;50.698;7.164;2024-03-17T07:25:57;101531.91;;;7.11;92.13
81913;BME280;71377;50.698;7.164;2024-03-17T07:28:23;101529.13;;;7.37;89.99
81913;BME280;71377;50.698;7.164;2024-03-17T07:30:50;101520.44;;;7.35;89.80
81913;BME280;71377;50.698;7.164;2024-03-17T07:33:16;101521.06;;;7.61;88.51
81913;BME280;71377;50.698;7.164;2024-03-17T07:35:48;101514.78;;;7.81;87.69
81913;BME280;71377;50.698;7.164;2024-03-17T07:38:14;101521.69;;;7.86;86.96
81913;BME280;71377;50.698;7.164;2024-03-17T07:40:39;101523.44;;;7.87;87.48
81913;BME280;71377;50.698;7.164;2024-03-17T07:43:05;101523.31;;;8.00;87.31
81913;BME280;71377;50.698;7.164;2024-03-17T07:45:30;101524.94;;;8.11;85.84
81913;BME280;71377;50.698;7.164;2024-03-17T07:47:56;101533.53;;;8.22;85.04
81913;BME280;71377;50.698;7.164;2024-03-17T07:50:21;101532.53;;;8.34;84.07
81913;BME280;71377;50.698;7.164;2024-03-17T07:52:47;101538.50;;;8.47;84.22
81913;BME280;71377;50.698;7.164;2024-03-17T07:55:12;101533.09;;;8.61;84.13
81913;BME280;71377;50.698;7.164;2024-03-17T07:57:38;101534.19;;;8.41;84.15
81913;BME280;71377;50.698;7.164;2024-03-17T08:00:05;101544.41;;;8.64;83.35
81913;BME280;71377;50.698;7.164;2024-03-17T08:02:35;101548.78;;;8.62;84.37
81913;BME280;71377;50.698;7.164;2024-03-17T08:05:00;101554.72;;;8.75;84.08
81913;BME280;71377;50.698;7.164;2024-03-17T08:07:26;101553.19;;;8.60;83.85
81913;BME280;71377;50.698;7.164;2024-03-17T08:09:51;101559.22;;;8.65;84.74
81913;BME280;71377;50.698;7.164;2024-03-17T08:12:17;101551.19;;;8.79;83.34
81913;BME280;71377;50.698;7.164;2024-03-17T08:14:42;101556.22;;;8.96;83.28
81913;BME280;71377;50.698;7.164;2024-03-17T08:17:08;101550.84;;;9.02;83.12
81913;BME280;71377;50.698;7.164;2024-03-17T08:19:35;101538.69;;;8.98;82.95
81913;BME280;71377;50.698;7.164;2024-03-17T08:22:01;101535.09;;;9.06;82.74
81913;BME280;71377;50.698;7.164;2024-03-17T08:24:26;101534.25;;;9.03;83.14
81913;BME280;71377;50.698;7.164;2024-03-17T08:26:52;101527.09;;;9.14;83.36
81913;BME280;71377;50.698;7.164;2024-03-17T08:29:17;101530.94;;;9.49;82.42
81913;BME280;71377;50.698;7.164;2024-03-17T08:31:42;101538.56;;;9.61;81.67
81913;BME280;71377;50.698;7.164;2024-03-17T08:34:10;101530.44;;;9.76;81.97
81913;BME280;71377;50.698;7.164;2024-03-17T08:36:36;101535.59;;;9.82;80.29
81913;BME280;71377;50.698;7.164;2024-03-17T08:39:01;101525.63;;;10.01;80.24
81913;BME280;71377;50.698;7.164;2024-03-17T08:41:27;101520.44;;;9.97;79.61
81913;BME280;71377;50.698;7.164;2024-03-17T08:43:52;101520.47;;;9.95;79.64
81913;BME280;71377;50.698;7.164;2024-03-17T08:46:18;101515.44;;;9.84;80.70
81913;BME280;71377;50.698;7.164;2024-03-17T08:48:43;101506.66;;;9.85;79.22
81913;BME280;71377;50.698;7.164;2024-03-17T08:51:09;101505.13;;;9.72;79.97
81913;BME280;71377;50.698;7.164;2024-03-17T08:53:36;101512.81;;;9.84;79.46
81913;BME280;71377;50.698;7.164;2024-03-17T08:56:04;101511.59;;;10.02;77.83
81913;BME280;71377;50.698;7.164;2024-03-17T08:58:29;101501.59;;;10.21;77.06
81913;BME280;71377;50.698;7.164;2024-03-17T09:00:55;101499.38;;;10.46;76.61
81913;BME280;71377;50.698;7.164;2024-03-17T09:03:21;101488.41;;;10.66;74.42
81913;BME280;71377;50.698;7.164;2024-03-17T09:05:48;101484.69;;;10.76;73.46
81913;BME280;71377;50.698;7.164;2024-03-17T09:08:22;101484.13;;;11.00;72.49
81913;BME280;71377;50.698;7.164;2024-03-17T09:10:49;101487.47;;;11.07;70.88
81913;BME280;71377;50.698;7.164;2024-03-17T09:13:16;101494.81;;;11.28;71.02
81913;BME280;71377;50.698;7.164;2024-03-17T09:15:59;101492.88;;;11.38;69.79
81913;BME280;71377;50.698;7.164;2024-03-17T09:18:26;101489.06;;;11.14;69.98
81913;BME280;71377;50.698;7.164;2024-03-17T09:23:22;101479.03;;;11.30;70.89
81913;BME280;71377;50.698;7.164;2024-03-17T09:26:05;101488.84;;;11.57;68.12
81913;BME280;71377;50.698;7.164;2024-03-17T09:28:33;101488.00;;;11.57;67.76
81913;BME280;71377;50.698;7.164;2024-03-17T09:30:59;101496.75;;;11.57;68.21
81913;BME280;71377;50.698;7.164;2024-03-17T09:33:28;101500.97;;;11.65;67.48
81913;BME280;71377;50.698;7.164;2024-03-17T09:35:56;101504.88;;;11.48;66.78
81913;BME280;71377;50.698;7.164;2024-03-17T09:38:22;101502.31;;;11.79;67.14
81913;BME280;71377;50.698;7.164;2024-03-17T09:40:48;101498.59;;;11.88;67.03
81913;BME280;71377;50.698;7.164;2024-03-17T09:43:16;101496.56;;;11.99;67.33
81913;BME280;71377;50.698;7.164;2024-03-17T09:45:42;101489.47;;;12.01;66.49
81913;BME280;71377;50.698;7.164;2024-03-17T09:48:13;101494.53;;;12.07;65.80
81913;BME280;71377;50.698;7.164;2024-03-17T09:50:39;101494.00;;;12.57;63.94
81913;BME280;71377;50.698;7.164;2024-03-17T09:53:05;101493.66;;;12.67;62.84
81913;BME280;71377;50.698;7.164;2024-03-17T09:55:30;101500.81;;;12.92;61.70
81913;BME280;71377;50.698;7.164;2024-03-17T09:57:56;101499.28;;;12.85;62.38
81913;BME280;71377;50.698;7.164;2024-03-17T10:00:21;101497.31;;;12.63;62.09
81913;BME280;71377;50.698;7.164;2024-03-17T10:02:47;101506.84;;;12.67;62.39
81913;BME280;71377;50.698;7.164;2024-03-17T10:05:21;101505.31;;;12.60;63.30
81913;BME280;71377;50.698;7.164;2024-03-17T10:07:47;101493.66;;;12.97;62.36
81913;BME280;71377;50.698;7.164;2024-03-17T10:10:17;101495.41;;;12.68;62.26
81913;BME280;71377;50.698;7.164;2024-03-17T10:12:49;101510.63;;;12.88;62.23
81913;BME280;71377;50.698;7.164;2024-03-17T10:15:15;101509.66;;;12.91;60.97
81913;BME280;71377;50.698;7.164;2024-03-17T10:17:40;101508.59;;;12.96;60.51
81913;BME280;71377;50.698;7.164;2024-03-17T10:20:12;101510.44;;;12.94;59.22
81913;BME280;71377;50.698;7.164;2024-03-17T10:22:57;101504.88;;;13.04;59.43
81913;BME280;71377;50.698;7.164;2024-03-17T10:25:26;101517.16;;;13.33;58.21
81913;BME280;71377;50.698;7.164;2024-03-17T10:27:53;101506.34;;;13.40;58.92
81913;BME280;71377;50.698;7.164;2024-03-17T10:30:19;101515.63;;;13.52;57.42
81913;BME280;71377;50.698;7.164;2024-03-17T10:32:52;101507.59;;;13.28;58.50
81913;BME280;71377;50.698;7.164;2024-03-17T10:35:34;101500.69;;;13.51;58.19
81913;BME280;71377;50.698;7.164;2024-03-17T10:38:04;101508.09;;;13.66;56.86
81913;BME280;71377;50.698;7.164;2024-03-17T10:40:31;101505.03;;;13.78;57.68
81913;BME280;71377;50.698;7.164;2024-03-17T10:43:00;101510.25;;;14.05;56.96
81913;BME280;71377;50.698;7.164;2024-03-17T10:45:26;101507.94;;;13.71;56.45
81913;BME280;71377;50.698;7.164;2024-03-17T10:47:56;101493.81;;;13.72;57.68
81913;BME280;71377;50.698;7.164;2024-03-17T10:50:24;101502.97;;;13.62;57.76
81913;BME280;71377;50.698;7.164;2024-03-17T10:52:50;101504.81;;;14.09;57.37
81913;BME280;71377;50.698;7.164;2024-03-17T10:55:24;101504.25;;;14.25;56.08
81913;BME280;71377;50.698;7.164;2024-03-17T10:57:52;101499.84;;;14.49;54.71
81913;BME280;71377;50.698;7.164;2024-03-17T11:00:20;101496.69;;;14.84;53.87
81913;BME280;71377;50.698;7.164;2024-03-17T11:02:48;101492.59;;;14.77;53.64
81913;BME280;71377;50.698;7.164;2024-03-17T11:07:46;101490.63;;;14.82;53.89
81913;BME280;71377;50.698;7.164;2024-03-17T11:10:19;101481.75;;;14.83;54.26
81913;BME280;71377;50.698;7.164;2024-03-17T11:12:54;101476.09;;;14.92;53.92
81913;BME280;71377;50.698;7.164;2024-03-17T11:23:28;101489.56;;;15.72;51.40
81913;BME280;71377;50.698;7.164;2024-03-17T11:25:55;101485.47;;;15.65;51.22
81913;BME280;71377;50.698;7.164;2024-03-17T11:34:04;101483.22;;;15.34;52.43
81913;BME280;71377;50.698;7.164;2024-03-17T11:36:36;101489.44;;;15.33;52.47
81913;BME280;71377;50.698;7.164;2024-03-17T11:39:08;101481.50;;;15.33;52.37
81913;BME280;71377;50.698;7.164;2024-03-17T11:41:48;101479.56;;;15.37;52.33
81913;BME280;71377;50.698;7.164;2024-03-17T11:44:23;101475.59;;;15.26;53.36
81913;BME280;71377;50.698;7.164;2024-03-17T11:49:33;101465.75;;;15.30;53.12
81913;BME280;71377;50.698;7.164;2024-03-17T11:52:01;101467.13;;;15.61;52.23
81913;BME280;71377;50.698;7.164;2024-03-17T11:54:33;101452.03;;;14.98;53.85
81913;BME280;71377;50.698;7.164;2024-03-17T11:57:04;101459.59;;;15.30;53.11
81913;BME280;71377;50.698;7.164;2024-03-17T11:59:32;101452.84;;;15.22;53.20
81913;BME280;71377;50.698;7.164;2024-03-17T12:01:58;101445.34;;;15.12;53.78
81913;BME280;71377;50.698;7.164;2024-03-17T12:04:24;101445.75;;;15.43;53.19
81913;BME280;71377;50.698;7.164;2024-03-17T12:06:52;101443.31;;;15.39;54.16
81913;BME280;71377;50.698;7.164;2024-03-17T12:09:23;101444.69;;;16.08;52.13
81913;BME280;71377;50.698;7.164;2024-03-17T12:14:24;101432.22;;;16.10;51.93
81913;BME280;71377;50.698;7.164;2024-03-17T12:16:54;101434.00;;;16.48;50.28
81913;BME280;71377;50.698;7.164;2024-03-17T12:19:21;101428.72;;;16.29;50.35
81913;BME280;71377;50.698;7.164;2024-03-17T12:21:52;101430.34;;;16.31;50.53
81913;BME280;71377;50.698;7.164;2024-03-17T12:24:21;101428.09;;;16.43;50.87
81913;BME280;71377;50.698;7.164;2024-03-17T12:26:47;101418.31;;;16.05;52.02
81913;BME280;71377;50.698;7.164;2024-03-17T12:29:27;101412.97;;;16.26;51.32
81913;BME280;71377;50.698;7.164;2024-03-17T12:31:59;101406.84;;;16.24;51.00
81913;BME280;71377;50.698;7.164;2024-03-17T12:34:27;101403.63;;;16.74;49.85
81913;BME280;71377;50.698;7.164;2024-03-17T12:36:53;101401.06;;;16.89;49.60
81913;BME280;71377;50.698;7.164;2024-03-17T12:39:21;101404.91;;;17.01;49.08
81913;BME280;71377;50.698;7.164;2024-03-17T12:44:39;101401.53;;;16.80;49.91
81913;BME280;71377;50.698;7.164;2024-03-17T12:47:10;101396.72;;;16.88;49.28
81913;BME280;71377;50.698;7.164;2024-03-17T12:50:08;101394.69;;;16.20;51.18
81913;BME280;71377;50.698;7.164;2024-03-17T12:52:32;101383.22;;;16.38;50.70
81913;BME280;71377;50.698;7.164;2024-03-17T12:55:07;101387.34;;;16.06;51.55
81913;BME280;71377;50.698;7.164;2024-03-17T12:58:05;101382.31;;;16.56;50.96
81913;BME280;71377;50.698;7.164;2024-03-17T13:01:00;101373.25;;;16.24;51.53
81913;BME280;71377;50.698;7.164;2024-03-17T13:03:29;101367.81;;;16.63;50.37
81913;BME280;71377;50.698;7.164;2024-03-17T13:05:55;101364.78;;;16.54;50.89
81913;BME280;71377;50.698;7.164;2024-03-17T13:08:20;101362.09;;;16.73;50.55
81913;BME280;71377;50.698;7.164;2024-03-17T13:10:46;101358.91;;;16.83;49.61
81913;BME280;71377;50.698;7.164;2024-03-17T13:13:12;101349.34;;;16.62;50.43
81913;BME280;71377;50.698;7.164;2024-03-17T13:15:41;101351.78;;;16.48;51.02
81913;BME280;71377;50.698;7.164;2024-03-17T13:18:07;101341.91;;;16.51;50.56
81913;BME280;71377;50.698;7.164;2024-03-17T13:20:33;101339.41;;;16.48;51.23
81913;BME280;71377;50.698;7.164;2024-03-17T13:23:00;101337.50;;;16.50;51.23
81913;BME280;71377;50.698;7.164;2024-03-17T13:25:27;101342.25;;;16.26;51.79